• Join FlightAware (Why Join?)
  • Login
  • US Flag 
12:04AM EDT


 

Airport Tracker/Info


-or-


 

Live Flight TrackerFlight Track Log ✈ TSC532 ✈ 18-Apr-2013 ✈ CYHZ - MUSC / SNU

Flight Track Log - Related Links

Times and Time Zones

All times are in EDT time to prevent confusion due to time zone crossing. See the TSC532 flight status page for this flight to view local times or setup timezone preferences in your user account.

Time Position Orientation Groundspeed Altitude Reporting Facility
EDT Latitude Longitude Course Direction KTS MPH feet Rate Location/Type
05:26AM 44.9000 -63.4833 240° Southwest 170 196 2,600  Level Moncton Center
05:27AM 44.9167 -63.5000 325° Northwest 190 219 4,700 2,520 Climbing Moncton Center
05:28AM 44.8833 -63.6000 245° Southwest 260 299 7,700 3,000 Climbing Moncton Center
05:29AM 44.8500 -63.6833 241° Southwest 270 311 10,700 2,520 Climbing Moncton Center
05:30AM 44.8000 -63.8000 239° Southwest 330 380 12,800 2,580 Climbing Moncton Center
05:31AM 44.7500 -63.9333 242° Southwest 360 414 15,900 2,760 Climbing Moncton Center
05:32AM 44.4896 -64.3652 240° Southwest  Level FlightAware Approximate
05:32AM 44.7000 -64.0500 239° Southwest 370 426 18,400  Level Moncton Center
05:33AM 44.6333 -64.1833 235° Southwest 380 437 21,300 2,520 Climbing Moncton Center
05:34AM 44.5833 -64.3000 239° Southwest 390 449 23,500 2,100 Climbing Moncton Center
05:35AM 44.5333 -64.4500 245° Southwest 400 460 25,500 1,800 Climbing Moncton Center
05:36AM 44.4667 -64.5833 235° Southwest 410 472 27,200 1,740 Climbing Moncton Center
05:37AM 44.4000 -64.7167 235° Southwest 430 495 29,000 2,040 Climbing Moncton Center
05:38AM 44.3500 -64.8667 245° Southwest 420 483 31,300 1,800 Climbing Moncton Center
05:39AM 44.2833 -65.0000 235° Southwest 420 483 32,700 1,260 Climbing Moncton Center
05:40AM 44.2333 -65.1500 245° Southwest 420 483 33,900 600 Climbing Moncton Center
05:41AM 44.1667 -65.2833 235° Southwest 430 495 34,000  Climbing Moncton Center
05:42AM 44.1000 -65.4167 235° Southwest 430 495 34,000  Level Moncton Center
05:43AM 44.0333 -65.5667 238° Southwest 430 495 34,000  Level Moncton Center
05:44AM 43.9833 -65.7000 243° Southwest 430 495 34,000  Level Moncton Center
05:45AM 43.9167 -65.8333 235° Southwest 430 495 34,000  Level Moncton Center
05:46AM 43.8333 -66.0000 235° Southwest 430 495 34,000  Level Moncton Center
05:47AM 43.7833 -66.1333 243° Southwest 430 495 34,000  Level Moncton Center
05:48AM 43.7000 -66.2667 229° Southwest 440 506 34,000  Level Moncton Center
05:49AM 43.6167 -66.3833 225° Southwest 440 506 34,000  Level Moncton Center
05:50AM 43.5500 -66.5167 235° Southwest 440 506 34,000  Level Moncton Center
05:51AM 43.4667 -66.6500 229° Southwest 450 518 34,000  Level Moncton Center
05:52AM 43.3833 -66.7833 229° Southwest 450 518 34,000  Level Moncton Center
05:53AM 43.3000 -66.9167 229° Southwest 440 506 34,000  Level Moncton Center
05:54AM 43.2167 -67.0333 226° Southwest 440 506 34,000  Level Moncton Center
05:55AM 43.1500 -67.1667 236° Southwest 450 518 34,000  Level Moncton Center
05:56AM 43.0833 -67.3000 236° Southwest 440 506 34,000  Level Moncton Center
05:58AM 43.0117 -67.4842 242° Southwest 440 506 34,000  Level Boston Center
05:59AM 42.9508 -67.6197 239° Southwest 435 501 34,000 -60 Level Boston Center
05:59AM 42.8833 -67.7167 226° Southwest 440 506 33,900 -60 Descending Moncton Center
06:00AM 42.8333 -67.8500 243° Southwest 430 495 33,900  Level Moncton Center
06:01AM 42.7500 -67.9833 230° Southwest 440 506 34,000  Climbing Moncton Center
06:02AM 42.6833 -68.1500 241° Southwest 440 506 34,000  Level Moncton Center
06:03AM 42.6333 -68.2833 243° Southwest 440 506 34,000  Level Moncton Center
06:04AM 42.5667 -68.4167 236° Southwest 440 506 34,000 -60 Level Moncton Center
06:05AM 42.5000 -68.5333 232° Southwest 430 495 33,900  Descending Moncton Center
06:06AM 42.4333 -68.7000 242° Southwest 440 506 34,000  Climbing Moncton Center
06:07AM 42.3667 -68.8333 236° Southwest 440 506 34,000  Level Moncton Center
06:08AM 42.3569 -68.8744 252° West 440 506 34,000  Level Boston Center
06:09AM 42.2922 -69.0100 237° Southwest 440 506 34,000  Level Boston Center
06:10AM 42.2239 -69.1653 239° Southwest 446 513 34,000  Level Boston Center
06:11AM 42.1547 -69.2978 235° Southwest 446 513 34,000  Level Boston Center
06:12AM 42.0875 -69.4353 237° Southwest 446 513 34,000  Level Boston Center
06:13AM 42.0219 -69.5642 236° Southwest 439 505 34,000  Level Boston Center
06:14AM 41.9442 -69.6989 232° Southwest 439 505 34,000  Level Boston Center
06:15AM 41.8928 -69.8239 241° Southwest 439 505 34,000  Level Boston Center
06:16AM 41.8250 -69.9606 236° Southwest 439 505 34,000  Level Boston Center
06:17AM 41.7508 -70.0997 234° Southwest 438 504 34,000  Level Boston Center
06:18AM 41.6869 -70.2356 238° Southwest 433 498 34,000  Level Boston Center
06:19AM 41.6164 -70.3658 234° Southwest 433 498 34,000  Level Boston Center
06:20AM 41.5522 -70.5011 238° Southwest 438 504 34,000  Level Boston Center
06:21AM 41.4878 -70.6417 239° Southwest 443 510 34,000  Level Boston Center
06:22AM 41.4211 -70.7736 236° Southwest 443 510 34,000  Level Boston Center
06:23AM 41.3522 -70.9081 236° Southwest 443 510 34,000  Level Boston Center
06:24AM 41.2872 -71.0394 237° Southwest 443 510 34,000  Level Boston Center
06:25AM 41.2036 -71.1986 235° Southwest 443 510 34,000  Level Boston Center
06:26AM 41.1361 -71.3294 236° Southwest 443 510 34,000 -60 Level Boston Center
06:27AM 41.0686 -71.4600 236° Southwest 443 510 33,900  Descending Boston Center
06:28AM 41.0133 -71.5681 236° Southwest 443 510 34,000  Climbing Boston Center
06:29AM 40.9311 -71.7258 235° Southwest 443 510 33,900  Descending Boston Center
06:30AM 40.8608 -71.8528 234° Southwest 443 510 34,000  Climbing Boston Center
06:31AM 40.7947 -71.9631 232° Southwest 437 503 34,000  Level Boston Center
06:32AM 40.6994 -72.1336 234° Southwest 437 503 34,000 -60 Level Boston Center
06:33AM 40.6311 -72.2678 236° Southwest 442 509 33,900  Descending Boston Center
06:34AM 40.5581 -72.3936 233° Southwest 442 509 34,000  Climbing Boston Center
06:35AM 40.4894 -72.5275 236° Southwest 442 509 34,000  Level Boston Center
06:36AM 40.4183 -72.6608 235° Southwest 448 516 34,000  Level Boston Center
06:37AM 40.3492 -72.7939 236° Southwest 448 516 34,000  Level Boston Center
06:38AM 40.2739 -72.9242 233° Southwest 448 516 34,000  Level Boston Center
06:39AM 40.2064 -73.0542 236° Southwest 448 516 34,000  Level Boston Center
06:41AM 40.0256 -73.3428 231° Southwest 443 510 34,000  Level Washington Center
06:42AM 39.9297 -73.4433 219° Southwest 448 516 34,000  Level Washington Center
06:43AM 39.8378 -73.5514 222° Southwest 448 516 34,000  Level Washington Center
06:44AM 39.7417 -73.6567 220° Southwest 448 516 34,000  Level Washington Center
06:45AM 39.6433 -73.7617 219° Southwest 453 521 34,000  Level Washington Center
06:46AM 39.5511 -73.8664 221° Southwest 453 521 34,000  Level Washington Center
06:47AM 39.4544 -73.9736 221° Southwest 453 521 34,000  Level Washington Center
06:48AM 39.3600 -74.0778 220° Southwest 453 521 34,000  Level Washington Center
06:49AM 39.2633 -74.1842 220° Southwest 453 521 34,000  Level Washington Center
06:50AM 39.1581 -74.2772 214° Southwest 458 527 34,100 300 Climbing Washington Center
06:51AM 39.0381 -74.3356 201° Southwest 453 521 34,700 600 Climbing Washington Center
06:52AM 38.9156 -74.3964 201° Southwest 466 536 35,400 600 Climbing Washington Center
06:53AM 38.7911 -74.4544 200° South 478 550 35,900 300 Climbing Washington Center
06:54AM 38.6664 -74.5147 201° Southwest 478 550 36,000  Climbing Washington Center
06:55AM 38.5439 -74.5725 200° South 478 550 36,000  Level Washington Center
06:56AM 38.4194 -74.6350 201° Southwest 478 550 36,000  Level Washington Center
06:58AM 38.2989 -74.6922 200° South 473 544 36,000  Level Washington Center
06:58AM 38.1783 -74.7492 200° South 465 535 36,000  Level Washington Center
06:59AM 38.0497 -74.8167 202° Southwest 470 541 36,000  Level Washington Center
07:00AM 37.9269 -74.8706 199° South 470 541 36,000  Level Washington Center
07:01AM 37.8083 -74.9294 201° Southwest 470 541 36,000  Level Washington Center
07:02AM 37.6856 -74.9831 199° South 465 535 36,000  Level Washington Center
07:03AM 37.5669 -75.0392 201° Southwest 465 535 36,000  Level Washington Center
07:04AM 37.4464 -75.0947 200° South 465 535 36,000  Level Washington Center
07:05AM 37.3275 -75.1506 200° South 465 535 36,000  Level Washington Center
07:06AM 37.2111 -75.2086 202° Southwest 465 535 36,000  Level Washington Center
07:07AM 37.0903 -75.2611 199° South 465 535 36,000  Level Washington Center
07:08AM 36.9839 -75.3111 201° Southwest 465 535 36,000  Level Washington Center
07:09AM 36.8650 -75.3661 200° South 465 535 36,000  Level Washington Center
07:10AM 36.7442 -75.4183 199° South 465 535 36,000 -60 Level Washington Center
07:11AM 36.6253 -75.4728 200° South 465 535 35,900  Descending Washington Center
07:12AM 36.5064 -75.5272 200° South 465 535 36,000  Climbing Washington Center
07:13AM 36.3897 -75.5792 200° South 460 529 36,000  Level Washington Center
07:14AM 36.2561 -75.6436 201° Southwest 460 529 36,000  Level Washington Center
07:15AM 36.1475 -75.6897 199° South 465 535 36,000  Level Washington Center
07:16AM 36.0308 -75.7436 200° South 465 535 36,000  Level Washington Center
07:17AM 35.9097 -75.7972 200° South 465 535 36,000 -60 Level Washington Center
07:18AM 35.7886 -75.8506 200° South 465 535 35,900  Descending Washington Center
07:19AM 35.6694 -75.9014 199° South 465 535 36,000  Climbing Washington Center
07:20AM 35.5483 -75.9547 200° South 465 535 36,000  Level Washington Center
07:21AM 35.4272 -76.0100 200° South 465 535 36,000  Level Washington Center
07:22AM 35.3100 -76.0631 200° South 465 535 36,000 -60 Level Washington Center
07:23AM 35.1908 -76.1131 199° South 465 535 35,900  Descending Washington Center
07:24AM 35.0592 -76.1731 200° South 465 535 36,000  Climbing Washington Center
07:25AM 34.9442 -76.2281 201° Southwest 455 524 36,000  Level Washington Center
07:26AM 34.8250 -76.2778 199° South 455 524 36,000  Level Washington Center
07:27AM 34.7058 -76.3272 199° South 455 524 36,000 -60 Level Washington Center
07:28AM 34.5864 -76.3792 200° South 455 524 35,900  Descending Washington Center
07:29AM 34.4692 -76.4311 200° South 455 524 36,000  Climbing Washington Center
07:30AM 34.3522 -76.4828 200° South 450 518 36,000  Level Washington Center
07:31AM 34.2306 -76.5342 199° South 455 524 36,000  Level Washington Center
07:32AM 34.1092 -76.5853 199° South 455 524 36,000  Level Washington Center
07:35AM 33.8675 -76.6903 200° South 456 525 36,000  Level Jacksonville Center
07:36AM 33.7469 -76.7411 199° South 456 525 36,000  Level Jacksonville Center
07:37AM 33.6306 -76.7917 200° South 456 525 36,000  Level Jacksonville Center
07:38AM 33.5097 -76.8400 198° South 456 525 36,000  Level Jacksonville Center
07:39AM 33.3908 -76.8878 199° South 456 525 36,000 -60 Level Jacksonville Center
07:40AM 33.2744 -76.9378 200° South 449 517 35,900  Descending Jacksonville Center
07:41AM 33.1517 -76.9883 199° South 449 517 36,000  Climbing Jacksonville Center
07:42AM 33.0369 -77.0381 200° South 455 524 36,000  Level Jacksonville Center
07:43AM 32.9119 -77.0881 199° South 455 524 36,000  Level Jacksonville Center
07:44AM 32.7933 -77.1403 200° South 455 524 36,000  Level Jacksonville Center
07:45AM 32.6764 -77.1847 198° South 455 524 36,000  Level Jacksonville Center
07:46AM 32.5558 -77.2367 200° South 455 524 36,000  Level Jacksonville Center
07:47AM 32.4386 -77.2808 198° South 455 524 36,000  Level Jacksonville Center
07:48AM 32.3181 -77.3350 201° Southwest 455 524 36,000  Level Jacksonville Center
07:49AM 32.2011 -77.3814 199° South 455 524 36,000  Level Jacksonville Center
07:50AM 32.0842 -77.4300 199° South 455 524 36,000  Level Jacksonville Center
07:51AM 31.9653 -77.4786 199° South 455 524 36,000  Level Jacksonville Center
07:52AM 31.8442 -77.5250 198° South 455 524 36,000 -60 Level Jacksonville Center
07:53AM 31.7272 -77.5756 200° South 455 524 35,900  Descending Jacksonville Center
07:54AM 31.6061 -77.6264 200° South 455 524 36,000  Climbing Jacksonville Center
07:55AM 31.4911 -77.6672 197° South 455 524 36,000  Level Jacksonville Center
07:56AM 31.3697 -77.7103 197° South 450 518 36,000  Level Jacksonville Center
07:57AM 31.2528 -77.7656 202° Southwest 455 524 36,000  Level Jacksonville Center
07:58AM 31.1336 -77.8108 198° South 455 524 36,000  Level Jacksonville Center
07:59AM 31.0164 -77.8533 197° South 455 524 36,000  Level Jacksonville Center
08:00AM 30.8992 -77.8961 197° South 455 524 36,000  Level Jacksonville Center
08:01AM 30.7819 -77.9458 200° South 455 524 36,000  Level Jacksonville Center
08:02AM 30.6444 -78.0058 201° Southwest 455 524 36,000 -60 Level Jacksonville Center
08:03AM 30.5475 -78.0328 193° South 445 512 35,900  Descending Jacksonville Center
08:05AM 30.2956 -78.1267 198° South 433 498 36,000  Climbing Miami Center
08:06AM 30.1744 -78.1467 188° South 438 504 36,000  Level Miami Center
08:07AM 30.0450 -78.1597 185° South 445 512 36,000  Level Miami Center
08:08AM 29.9281 -78.1844 190° South 448 516 36,000  Level Miami Center
08:09AM 29.8069 -78.1997 186° South 441 507 36,000  Level Miami Center
08:10AM 29.6839 -78.2197 188° South 450 518 36,000  Level Miami Center
08:11AM 29.5628 -78.2397 188° South 450 518 36,000  Level Miami Center
08:12AM 29.4394 -78.2547 186° South 450 518 36,000  Level Miami Center
08:13AM 29.3244 -78.2772 190° South 444 511 36,000  Level Miami Center
08:14AM 29.2033 -78.2969 188° South 444 511 36,000  Level Miami Center
08:15AM 29.0800 -78.3144 187° South 444 511 36,000  Level Miami Center
08:16AM 28.9547 -78.3317 187° South 444 511 36,000  Level Miami Center
08:17AM 28.8314 -78.3539 189° South 452 520 36,000  Level Miami Center
08:18AM 28.7058 -78.3711 187° South 452 520 36,000  Level Miami Center
08:19AM 28.5867 -78.3908 188° South 446 513 36,000  Level Miami Center
08:20AM 28.4614 -78.4078 187° South 452 520 36,000  Level Miami Center
08:21AM 28.3381 -78.4275 188° South 452 520 36,000 -60 Level Miami Center
08:22AM 28.2061 -78.4492 188° South 441 507 35,900 -60 Descending Miami Center
08:23AM 28.0869 -78.4686 188° South 447 514 35,900  Level Miami Center
08:24AM 27.9614 -78.4881 188° South 447 514 36,000  Climbing Miami Center
08:25AM 27.8403 -78.5053 187° South 447 514 36,000  Level Miami Center
08:26AM 27.7147 -78.5267 189° South 447 514 36,000  Level Miami Center
08:27AM 27.5892 -78.5436 187° South 447 514 36,000  Level Miami Center
08:28AM 27.4678 -78.5631 188° South 447 514 36,000  Level Miami Center
08:29AM 27.3403 -78.5822 188° South 447 514 36,000  Level Miami Center
08:30AM 27.2189 -78.5992 187° South 457 526 36,000  Level Miami Center
08:31AM 27.0953 -78.6183 188° South 446 513 36,000 -60 Level Miami Center
08:32AM 26.9719 -78.6350 187° South 446 513 35,900 -60 Descending Miami Center
08:33AM 26.8464 -78.6564 189° South 452 520 35,900  Level Miami Center
08:34AM 26.7231 -78.6731 187° South 447 514 36,000  Climbing Miami Center
08:35AM 26.6142 -78.6900 188° South 447 514 36,000  Level Miami Center
08:36AM 26.4906 -78.7089 188° South 447 514 36,000  Level Miami Center
08:37AM 26.3650 -78.7256 187° South 447 514 36,000  Level Miami Center
08:38AM 26.2417 -78.7444 188° South 452 520 36,000  Level Miami Center
08:39AM 26.1117 -78.7633 187° South 458 527 36,000  Level Miami Center
08:40AM 25.9736 -78.7864 189° South 458 527 36,000  Level Miami Center
08:41AM 25.8542 -78.8008 186° South 458 527 36,000  Level Miami Center
08:42AM 25.7286 -78.8219 189° South 458 527 36,000  Level Miami Center
08:43AM 25.6008 -78.8406 187° South 458 527 36,000  Level Miami Center
08:44AM 25.4794 -78.8569 187° South 453 521 36,000  Level Miami Center
08:45AM 25.3497 -78.8778 188° South 464 534 36,000  Level Miami Center
08:46AM 25.2242 -78.8964 188° South 464 534 36,000  Level Miami Center
08:47AM 25.0964 -78.9150 188° South 464 534 36,000  Level Miami Center
08:48AM 24.9875 -78.9314 188° South 461 531 36,000  Level Miami Center
08:49AM 24.8450 -78.9497 187° South 466 536 36,000 -300 Level Miami Center
08:50AM 24.7153 -78.9681 187° South 466 536 35,500 -720 Descending Miami Center
08:51AM 24.6042 -78.9844 188° South 471 542 34,600 -960 Descending Miami Center
08:52AM 24.4786 -79.0028 188° South 465 535 33,600 -1,020 Descending Miami Center
08:53AM 24.3550 -79.0211 188° South 452 520 32,600 -840 Descending Miami Center
08:54AM 24.2294 -79.0419 189° South 458 527 32,000 -600 Descending Miami Center
08:55AM 24.0975 -79.0556 185° South 468 539 31,500 -540 Descending Miami Center
08:57AM 23.9042 -79.1190 208° Southwest  Level FlightAware Approximate
09:04AM 23.1719 -79.5490 207° Southwest  Level FlightAware Approximate
09:05AM 23.0661 -79.6077 207° Southwest  Level FlightAware Approximate
09:06AM 22.9585 -79.6625 205° Southwest  Level FlightAware Approximate
09:07AM 22.8506 -79.7164 205° Southwest  Level FlightAware Approximate
09:08AM 22.7448 -79.7751 207° Southwest  Level FlightAware Approximate
09:09AM 22.6457 -79.8438 205° Southwest  Level FlightAware Approximate
09:10AM 22.5389 -79.9000 209° Southwest  Level FlightAware Approximate
09:11AM 22.4833 -79.9333 209° Southwest  Level FlightAware Approximate
09:12AM 22.4922 -79.9436 209° Southwest  Level Estimated
09:13AM 22.4922 -79.9436 209° Southwest  Level Estimated
09:14AM 22.4922 -79.9436 209° Southwest  Level Estimated
09:15AM 22.4922 -79.9436 209° Southwest  Level Estimated
09:16AM 22.4922 -79.9436 209° Southwest  Level Estimated
09:17AM 22.4922 -79.9436 209° Southwest  Level Estimated
09:18AM 22.4922 -79.9436 209° Southwest  Level Estimated
09:19AM 22.4922 -79.9436 209° Southwest  Level Estimated
09:20AM 22.4922 -79.9436 209° Southwest  Level Estimated
09:21AM 22.4922 -79.9436 209° Southwest  Level Estimated
09:22AM 22.4922 -79.9436 209° Southwest  Level Estimated
09:23AM 22.4922 -79.9436 209° Southwest  Level Estimated
09:24AM 22.4922 -79.9436 209° Southwest  Level Estimated
09:25AM 22.4922 -79.9436 209° Southwest  Level Estimated